createdAt,value
2023-10-16T00:00:24.987Z,3.73
2023-10-16T00:01:24.947Z,3.78
2023-10-16T00:02:24.984Z,3.77
2023-10-16T00:03:24.968Z,3.80
2023-10-16T00:04:25.154Z,3.77
2023-10-16T00:05:24.890Z,3.80
2023-10-16T00:06:24.993Z,3.77
2023-10-16T00:07:24.852Z,3.78
2023-10-16T00:08:24.846Z,3.78
2023-10-16T00:09:24.872Z,3.76
2023-10-16T00:10:24.843Z,3.77
2023-10-16T00:11:24.835Z,3.76
2023-10-16T00:12:24.861Z,3.77
2023-10-16T00:13:24.792Z,3.78
2023-10-16T00:14:25.418Z,3.77
2023-10-16T00:15:24.791Z,3.78
2023-10-16T00:16:24.953Z,3.78
2023-10-16T00:17:24.731Z,3.78
2023-10-16T00:18:24.812Z,3.80
2023-10-16T00:19:24.709Z,3.77
2023-10-16T00:20:24.709Z,3.81
2023-10-16T00:21:24.797Z,3.81
2023-10-16T00:22:24.656Z,3.83
2023-10-16T00:23:24.665Z,3.80
2023-10-16T00:24:24.836Z,3.74
2023-10-16T00:25:24.642Z,3.77
2023-10-16T00:26:24.653Z,3.76
2023-10-16T00:27:24.641Z,3.76
2023-10-16T00:28:24.619Z,3.78
2023-10-16T00:29:24.586Z,3.81
2023-10-16T00:30:24.602Z,3.80
2023-10-16T00:31:24.563Z,3.78
2023-10-16T00:32:24.529Z,3.84
2023-10-16T00:33:24.597Z,3.80
2023-10-16T00:34:24.648Z,3.81
2023-10-16T00:35:24.488Z,3.74
2023-10-16T00:36:24.490Z,3.51
2023-10-16T00:37:24.458Z,3.36
2023-10-16T00:38:24.502Z,3.19
2023-10-16T00:39:24.442Z,3.04
2023-10-16T00:40:24.429Z,2.90
2023-10-16T00:41:24.453Z,2.80
2023-10-16T00:42:24.433Z,2.79
2023-10-16T00:43:24.398Z,2.68
2023-10-16T00:44:24.370Z,2.68
2023-10-16T00:45:24.393Z,2.72
2023-10-16T00:46:24.356Z,2.77
2023-10-16T00:47:24.372Z,2.74
2023-10-16T00:48:24.397Z,2.79
2023-10-16T00:49:24.344Z,2.89
2023-10-16T00:50:24.323Z,2.93
2023-10-16T00:51:37.489Z,3.01
2023-10-16T00:52:24.322Z,3.05
2023-10-16T00:53:24.252Z,3.05
2023-10-16T00:54:24.267Z,3.11
2023-10-16T00:55:24.241Z,3.13
2023-10-16T00:56:24.222Z,3.16
2023-10-16T00:57:24.257Z,3.22
2023-10-16T00:58:24.191Z,3.21
2023-10-16T00:59:24.179Z,3.25
2023-10-16T01:00:24.215Z,3.36
2023-10-16T01:01:24.253Z,3.40
2023-10-16T01:02:24.220Z,3.42
2023-10-16T01:03:24.183Z,3.47
2023-10-16T01:04:24.233Z,3.47
2023-10-16T01:05:24.097Z,3.47
2023-10-16T01:06:24.295Z,3.47
2023-10-16T01:07:24.092Z,3.50
2023-10-16T01:08:24.061Z,3.45
2023-10-16T01:09:24.533Z,3.47
2023-10-16T01:10:24.036Z,3.51
2023-10-16T01:11:24.039Z,3.48
2023-10-16T01:12:24.026Z,3.47
2023-10-16T01:13:24.012Z,3.41
2023-10-16T01:14:24.093Z,3.45
2023-10-16T01:15:23.988Z,3.40
2023-10-16T01:16:24.002Z,3.41
2023-10-16T01:17:23.968Z,3.29
2023-10-16T01:18:23.963Z,3.26
2023-10-16T01:19:23.918Z,3.19
2023-10-16T01:20:23.923Z,3.23
2023-10-16T01:21:23.955Z,3.22
2023-10-16T01:22:23.887Z,3.28
2023-10-16T01:23:26.880Z,3.26
2023-10-16T01:24:23.875Z,3.26
2023-10-16T01:25:23.862Z,3.25
2023-10-16T01:26:23.826Z,3.25
2023-10-16T01:27:23.832Z,3.21
2023-10-16T01:28:23.806Z,3.19
2023-10-16T01:29:23.785Z,3.19
2023-10-16T01:30:23.798Z,3.13
2023-10-16T01:31:23.835Z,3.04
2023-10-16T01:32:23.773Z,3.04
2023-10-16T01:33:23.783Z,2.98
2023-10-16T01:34:23.946Z,2.95
2023-10-16T01:35:23.725Z,2.98
2023-10-16T01:36:23.714Z,2.95
2023-10-16T01:37:23.688Z,2.97
2023-10-16T01:38:23.675Z,3.00
2023-10-16T01:39:23.708Z,3.00
2023-10-16T01:40:23.698Z,3.05
2023-10-16T01:41:23.644Z,3.11
2023-10-16T01:42:23.656Z,3.11
2023-10-16T01:43:23.608Z,3.21
2023-10-16T01:44:23.665Z,3.21
2023-10-16T01:45:23.712Z,3.22
2023-10-16T01:46:23.693Z,3.23
2023-10-16T01:47:23.557Z,3.23
2023-10-16T01:48:23.552Z,3.26
2023-10-16T01:49:23.571Z,3.26
2023-10-16T01:50:23.520Z,3.31
2023-10-16T01:51:23.576Z,3.28
2023-10-16T01:52:23.529Z,3.25
2023-10-16T01:53:23.537Z,3.25
2023-10-16T01:54:23.653Z,3.22
2023-10-16T01:55:23.453Z,3.29
2023-10-16T01:56:23.463Z,3.29
2023-10-16T01:57:23.513Z,3.29
2023-10-16T01:58:23.431Z,3.26
2023-10-16T01:59:23.418Z,3.31
2023-10-16T02:00:23.427Z,3.29
2023-10-16T02:01:23.433Z,3.28
2023-10-16T02:02:23.460Z,3.32
2023-10-16T02:03:23.458Z,3.31
2023-10-16T02:04:23.341Z,3.29
2023-10-16T02:05:23.437Z,3.29
2023-10-16T02:06:23.327Z,3.31
2023-10-16T02:07:23.296Z,3.31
2023-10-16T02:08:23.315Z,3.22
2023-10-16T02:09:23.359Z,3.25
2023-10-16T02:10:23.260Z,3.22
2023-10-16T02:11:23.247Z,3.22
2023-10-16T02:12:23.290Z,3.18
2023-10-16T02:13:23.236Z,3.16
2023-10-16T02:14:23.209Z,3.11
2023-10-16T02:15:23.331Z,3.10
2023-10-16T02:16:23.218Z,3.11
2023-10-16T02:17:23.301Z,3.11
2023-10-16T02:18:23.169Z,3.14
2023-10-16T02:19:23.146Z,3.19
2023-10-16T02:20:23.135Z,3.19
2023-10-16T02:21:23.183Z,3.19
2023-10-16T02:22:23.121Z,3.14
2023-10-16T02:23:23.100Z,3.13
2023-10-16T02:24:23.122Z,3.08
2023-10-16T02:25:23.074Z,3.13
2023-10-16T02:26:23.073Z,3.10
2023-10-16T02:27:23.118Z,3.08
2023-10-16T02:28:23.044Z,3.13
2023-10-16T02:29:23.019Z,3.04
2023-10-16T02:30:23.041Z,3.01
2023-10-16T02:31:23.048Z,3.01
2023-10-16T02:32:23.030Z,2.79
2023-10-16T02:33:22.983Z,2.62
2023-10-16T02:34:22.948Z,2.51
2023-10-16T02:35:22.977Z,2.44
2023-10-16T02:36:22.981Z,2.46
2023-10-16T02:37:23.162Z,2.36
2023-10-16T02:38:22.897Z,2.33
2023-10-16T02:39:22.916Z,2.32
2023-10-16T02:40:22.887Z,2.31
2023-10-16T02:41:22.878Z,2.36
2023-10-16T02:42:22.879Z,2.35
2023-10-16T02:43:22.830Z,2.43
2023-10-16T02:44:22.823Z,2.43
2023-10-16T02:45:22.833Z,2.44
2023-10-16T02:46:22.939Z,2.44
2023-10-16T02:47:22.794Z,2.49
2023-10-16T02:48:22.827Z,2.54
2023-10-16T02:49:22.759Z,2.60
2023-10-16T02:50:22.765Z,2.57
2023-10-16T02:51:22.752Z,2.57
2023-10-16T02:52:22.732Z,2.57
2023-10-16T02:53:22.725Z,2.65
2023-10-16T02:54:22.721Z,2.64
2023-10-16T02:55:22.694Z,2.67
2023-10-16T02:56:22.667Z,2.64
2023-10-16T02:57:22.711Z,2.67
2023-10-16T02:58:22.647Z,2.72
2023-10-16T02:59:22.652Z,2.72
2023-10-16T03:00:22.634Z,2.74
2023-10-16T03:01:22.689Z,2.74
2023-10-16T03:02:22.634Z,2.71
2023-10-16T03:03:22.606Z,2.74
2023-10-16T03:04:22.578Z,2.74
2023-10-16T03:05:22.566Z,2.75
2023-10-16T03:06:22.578Z,2.75
2023-10-16T03:07:22.588Z,2.82
2023-10-16T03:08:22.516Z,2.75
2023-10-16T03:09:22.609Z,2.77
2023-10-16T03:10:22.488Z,2.79
2023-10-16T03:11:22.476Z,2.77
2023-10-16T03:12:22.649Z,2.82
2023-10-16T03:13:22.453Z,2.74
2023-10-16T03:14:22.460Z,2.75
2023-10-16T03:15:22.457Z,2.71
2023-10-16T03:16:22.468Z,2.75
2023-10-16T03:17:22.397Z,2.71
2023-10-16T03:18:22.417Z,2.74
2023-10-16T03:19:22.404Z,2.75
2023-10-16T03:20:22.371Z,2.75
2023-10-16T03:21:22.381Z,2.75
2023-10-16T03:22:22.335Z,2.74
2023-10-16T03:23:22.322Z,2.69
2023-10-16T03:24:22.338Z,2.74
2023-10-16T03:25:22.324Z,2.71
2023-10-16T03:26:22.282Z,2.72
2023-10-16T03:27:22.367Z,2.72
2023-10-16T03:28:22.264Z,2.72
2023-10-16T03:29:22.268Z,2.69
2023-10-16T03:30:22.346Z,2.72
2023-10-16T03:31:22.346Z,2.72
2023-10-16T03:32:22.283Z,2.69
2023-10-16T03:33:22.358Z,2.69
2023-10-16T03:34:22.238Z,2.67
2023-10-16T03:35:22.185Z,2.65
2023-10-16T03:36:22.183Z,2.62
2023-10-16T03:37:22.140Z,2.56
2023-10-16T03:38:22.152Z,2.53
2023-10-16T03:39:22.166Z,2.56
2023-10-16T03:40:22.104Z,2.61
2023-10-16T03:41:22.123Z,2.57
2023-10-16T03:42:22.115Z,2.62
2023-10-16T03:43:22.086Z,2.65
2023-10-16T03:44:22.053Z,2.62
2023-10-16T03:45:22.091Z,2.60
2023-10-16T03:46:22.060Z,2.61
2023-10-16T03:47:22.050Z,2.57
2023-10-16T03:48:22.071Z,2.60
2023-10-16T03:49:21.994Z,2.61
2023-10-16T03:50:21.970Z,2.56
2023-10-16T03:51:21.980Z,2.56
2023-10-16T03:52:21.972Z,2.44
2023-10-16T03:53:21.955Z,2.38
2023-10-16T03:54:21.954Z,2.35
2023-10-16T03:55:21.980Z,2.38
2023-10-16T03:56:21.901Z,2.35
2023-10-16T03:57:21.979Z,2.36
2023-10-16T03:58:21.880Z,2.38
2023-10-16T03:59:21.860Z,2.42
2023-10-16T04:00:21.880Z,2.44
2023-10-16T04:01:21.864Z,2.44
2023-10-16T04:02:21.870Z,2.44
2023-10-16T04:03:22.136Z,2.46
2023-10-16T04:04:21.867Z,2.42
2023-10-16T04:05:21.804Z,2.47
2023-10-16T04:06:21.775Z,2.43
2023-10-16T04:07:21.775Z,2.39
2023-10-16T04:08:21.742Z,2.39
2023-10-16T04:09:21.775Z,2.33
2023-10-16T04:10:21.716Z,2.33
2023-10-16T04:11:21.730Z,2.33
2023-10-16T04:12:21.887Z,2.31
2023-10-16T04:13:21.697Z,2.32
2023-10-16T04:14:21.662Z,2.28
2023-10-16T04:15:21.696Z,2.29
2023-10-16T04:16:21.709Z,2.35
2023-10-16T04:17:21.626Z,2.36
2023-10-16T04:18:21.678Z,2.43
2023-10-16T04:19:21.602Z,2.39
2023-10-16T04:20:21.640Z,2.42
2023-10-16T04:21:21.633Z,2.46
2023-10-16T04:22:21.562Z,2.44
2023-10-16T04:23:21.552Z,2.44
2023-10-16T04:24:21.564Z,2.39
2023-10-16T04:25:21.542Z,2.38
2023-10-16T04:26:21.528Z,2.39
2023-10-16T04:27:21.521Z,2.36
2023-10-16T04:28:21.492Z,2.42
2023-10-16T04:29:21.496Z,2.39
2023-10-16T04:30:21.543Z,2.33
2023-10-16T04:31:21.564Z,2.36
2023-10-16T04:32:21.435Z,2.36
2023-10-16T04:33:21.449Z,2.38
2023-10-16T04:34:21.408Z,2.39
2023-10-16T04:35:21.413Z,2.36
2023-10-16T04:36:21.408Z,2.35
2023-10-16T04:37:21.379Z,2.29
2023-10-16T04:38:21.385Z,2.10
2023-10-16T04:39:21.370Z,1.94
2023-10-16T04:40:21.348Z,1.89
2023-10-16T04:41:21.340Z,1.89
2023-10-16T04:42:21.358Z,1.85
2023-10-16T04:43:21.307Z,1.85
2023-10-16T04:44:21.277Z,1.95
2023-10-16T04:45:21.355Z,2.00
2023-10-16T04:46:21.306Z,2.06
2023-10-16T04:47:22.388Z,2.08
2023-10-16T04:48:21.236Z,2.10
2023-10-16T04:49:21.241Z,2.14
2023-10-16T04:50:21.229Z,2.17
2023-10-16T04:51:34.107Z,2.18
2023-10-16T04:52:22.203Z,2.17
2023-10-16T04:53:21.165Z,2.17
2023-10-16T04:54:21.171Z,2.18
2023-10-16T04:55:21.139Z,2.17
2023-10-16T04:56:21.124Z,2.20
2023-10-16T04:57:21.126Z,2.20
2023-10-16T04:58:21.199Z,2.14
2023-10-16T04:59:21.101Z,2.15
2023-10-16T05:00:21.088Z,2.14
2023-10-16T05:01:21.126Z,2.14
2023-10-16T05:02:21.050Z,2.18
2023-10-16T05:03:21.141Z,2.17
2023-10-16T05:04:21.155Z,2.15
2023-10-16T05:05:21.018Z,2.07
2023-10-16T05:06:21.145Z,2.02
2023-10-16T05:07:20.983Z,1.99
2023-10-16T05:08:21.021Z,1.95
2023-10-16T05:09:21.009Z,1.95
2023-10-16T05:10:20.948Z,1.94
2023-10-16T05:11:20.933Z,1.99
2023-10-16T05:12:20.953Z,1.99
2023-10-16T05:13:20.930Z,1.95
2023-10-16T05:14:20.969Z,2.00
2023-10-16T05:15:20.949Z,1.97
2023-10-16T05:16:20.897Z,1.95
2023-10-16T05:17:20.876Z,1.97
2023-10-16T05:18:20.907Z,1.99
2023-10-16T05:19:20.838Z,2.02
2023-10-16T05:20:20.820Z,1.97
2023-10-16T05:21:20.845Z,1.97
2023-10-16T05:22:20.804Z,1.95
2023-10-16T05:23:20.796Z,1.95
2023-10-16T05:24:20.772Z,1.88
2023-10-16T05:25:20.769Z,1.87
2023-10-16T05:26:20.740Z,1.91
2023-10-16T05:27:20.758Z,1.94
2023-10-16T05:28:20.713Z,1.92
2023-10-16T05:29:20.707Z,1.92
2023-10-16T05:30:20.810Z,1.91
2023-10-16T05:31:20.691Z,1.91
2023-10-16T05:32:20.683Z,1.89
2023-10-16T05:33:20.703Z,1.76
2023-10-16T05:34:20.639Z,1.50
2023-10-16T05:35:20.627Z,1.34
2023-10-16T05:36:20.698Z,1.23
2023-10-16T05:37:20.622Z,1.22
2023-10-16T05:38:20.601Z,1.17
2023-10-16T05:39:20.592Z,1.13
2023-10-16T05:40:20.560Z,1.02
2023-10-16T05:41:20.566Z,0.95
2023-10-16T05:42:20.552Z,0.95
2023-10-16T05:43:20.524Z,0.96
2023-10-16T05:44:20.516Z,1.01
2023-10-16T05:45:20.541Z,1.05
2023-10-16T05:46:20.632Z,1.14
2023-10-16T05:47:20.468Z,1.20
2023-10-16T05:48:20.456Z,1.32
2023-10-16T05:49:20.465Z,1.34
2023-10-16T05:50:20.441Z,1.41
2023-10-16T05:51:20.435Z,1.44
2023-10-16T05:52:20.404Z,1.41
2023-10-16T05:53:20.400Z,1.42
2023-10-16T05:54:20.382Z,1.45
2023-10-16T05:55:20.382Z,1.48
2023-10-16T05:56:20.371Z,1.52
2023-10-16T05:57:20.342Z,1.50
2023-10-16T05:58:20.339Z,1.53
2023-10-16T05:59:20.322Z,1.53
2023-10-16T06:00:20.332Z,1.55
2023-10-16T06:01:20.364Z,1.56
2023-10-16T06:02:20.276Z,1.56
2023-10-16T06:03:20.281Z,1.60
2023-10-16T06:04:20.369Z,1.67
2023-10-16T06:05:20.352Z,1.63
2023-10-16T06:06:20.228Z,1.67
2023-10-16T06:07:20.213Z,1.68
2023-10-16T06:08:20.205Z,1.63
2023-10-16T06:09:20.188Z,1.66
2023-10-16T06:10:20.201Z,1.66
2023-10-16T06:11:20.162Z,1.68
2023-10-16T06:12:20.146Z,1.73
2023-10-16T06:13:20.144Z,1.74
2023-10-16T06:14:20.123Z,1.91
2023-10-16T06:15:20.149Z,1.95
2023-10-16T06:16:20.223Z,1.94
2023-10-16T06:17:20.087Z,2.02
2023-10-16T06:18:20.070Z,2.10
2023-10-16T06:19:20.077Z,2.06
2023-10-16T06:20:20.063Z,2.08
2023-10-16T06:21:20.059Z,2.04
2023-10-16T06:22:20.039Z,1.97
2023-10-16T06:23:20.009Z,2.04
2023-10-16T06:24:20.011Z,2.13
2023-10-16T06:25:19.985Z,2.20
2023-10-16T06:26:19.965Z,2.36
2023-10-16T06:27:19.979Z,2.51
2023-10-16T06:28:19.990Z,2.60
2023-10-16T06:29:19.947Z,2.43
2023-10-16T06:30:20.057Z,2.29
2023-10-16T06:31:19.972Z,2.29
2023-10-16T06:32:20.212Z,2.31
2023-10-16T06:33:19.879Z,2.35
2023-10-16T06:34:19.900Z,2.26
2023-10-16T06:35:19.906Z,2.31
2023-10-16T06:36:19.842Z,2.39
2023-10-16T06:37:19.848Z,2.49
2023-10-16T06:38:19.815Z,2.50
2023-10-16T06:39:19.819Z,2.46
2023-10-16T06:40:19.785Z,2.64
2023-10-16T06:41:19.774Z,2.74
2023-10-16T06:42:19.762Z,2.79
2023-10-16T06:43:19.799Z,2.85
2023-10-16T06:44:19.753Z,2.90
2023-10-16T06:45:19.777Z,2.98
2023-10-16T06:46:19.791Z,3.10
2023-10-16T06:47:19.703Z,3.14
2023-10-16T06:48:19.711Z,3.22
2023-10-16T06:49:19.670Z,3.41
2023-10-16T06:50:19.656Z,3.44
2023-10-16T06:51:19.650Z,3.23
2023-10-16T06:52:19.634Z,3.07
2023-10-16T06:53:19.658Z,3.00
2023-10-16T06:54:19.610Z,3.01
2023-10-16T06:55:19.598Z,3.04
2023-10-16T06:56:19.596Z,2.97
2023-10-16T06:57:19.565Z,2.92
2023-10-16T06:58:19.579Z,2.97
2023-10-16T06:59:19.545Z,2.89
2023-10-16T07:00:19.530Z,2.89
2023-10-16T07:01:19.581Z,2.79
2023-10-16T07:02:19.524Z,2.69
2023-10-16T07:03:19.525Z,2.68
2023-10-16T07:04:19.579Z,2.71
2023-10-16T07:05:19.522Z,2.57
2023-10-16T07:06:19.455Z,2.56
2023-10-16T07:07:21.833Z,2.57
2023-10-16T07:08:19.561Z,2.67
2023-10-16T07:09:19.434Z,2.77
2023-10-16T07:10:19.408Z,2.83
2023-10-16T07:11:19.386Z,2.83
2023-10-16T07:12:19.386Z,2.87
2023-10-16T07:13:19.365Z,2.89
2023-10-16T07:14:19.352Z,2.86
2023-10-16T07:15:19.349Z,2.85
2023-10-16T07:16:19.373Z,2.87
2023-10-16T07:17:19.334Z,2.97
2023-10-16T07:18:19.303Z,3.01
2023-10-16T07:19:19.279Z,3.10
2023-10-16T07:20:19.278Z,3.16
2023-10-16T07:21:19.556Z,3.00
2023-10-16T07:22:19.263Z,2.86
2023-10-16T07:23:19.232Z,2.89
2023-10-16T07:24:19.228Z,3.05
2023-10-16T07:25:19.224Z,3.21
2023-10-16T07:26:19.208Z,3.28
2023-10-16T07:27:19.180Z,3.29
2023-10-16T07:28:20.139Z,3.50
2023-10-16T07:29:19.154Z,3.66
2023-10-16T07:30:19.146Z,3.76
2023-10-16T07:31:19.185Z,3.76
2023-10-16T07:32:19.114Z,3.81
2023-10-16T07:33:19.103Z,3.88
2023-10-16T07:34:19.136Z,3.91
2023-10-16T07:35:19.089Z,3.70
2023-10-16T07:36:19.178Z,3.77
2023-10-16T07:37:19.050Z,3.91
2023-10-16T07:38:19.040Z,4.04
2023-10-16T07:39:19.036Z,4.14
2023-10-16T07:40:19.034Z,4.22
2023-10-16T07:41:19.015Z,4.35
2023-10-16T07:42:18.987Z,4.44
2023-10-16T07:43:18.972Z,4.17
2023-10-16T07:44:18.971Z,3.80
2023-10-16T07:45:18.971Z,3.88
2023-10-16T07:46:18.994Z,4.01
2023-10-16T07:47:18.924Z,4.16
2023-10-16T07:48:18.910Z,4.30
2023-10-16T07:49:18.909Z,4.44
2023-10-16T07:50:18.909Z,4.59
2023-10-16T07:51:18.868Z,4.66
2023-10-16T07:52:18.855Z,4.74
2023-10-16T07:53:18.843Z,4.75
2023-10-16T07:54:18.854Z,4.49
2023-10-16T07:55:18.824Z,4.42
2023-10-16T07:56:18.805Z,4.37
2023-10-16T07:57:18.821Z,4.14
2023-10-16T07:58:18.787Z,4.17
2023-10-16T07:59:18.786Z,4.31
2023-10-16T08:00:18.818Z,4.58
2023-10-16T08:01:19.193Z,4.78
2023-10-16T08:02:18.723Z,4.71
2023-10-16T08:03:18.803Z,4.59
2023-10-16T08:04:18.833Z,4.55
2023-10-16T08:05:18.686Z,4.55
2023-10-16T08:06:18.700Z,4.20
2023-10-16T08:07:18.661Z,4.23
2023-10-16T08:08:18.670Z,4.13
2023-10-16T08:09:18.652Z,4.19
2023-10-16T08:10:18.637Z,4.49
2023-10-16T08:11:18.609Z,4.89
2023-10-16T08:12:18.591Z,5.20
2023-10-16T08:13:18.633Z,5.44
2023-10-16T08:14:18.566Z,5.71
2023-10-16T08:15:18.555Z,5.91
2023-10-16T08:16:18.624Z,6.11
2023-10-16T08:17:18.977Z,6.14
2023-10-16T08:18:18.554Z,6.26
2023-10-16T08:19:18.521Z,6.27
2023-10-16T08:20:18.490Z,6.31
2023-10-16T08:21:18.524Z,6.45
2023-10-16T08:22:18.502Z,6.41
2023-10-16T08:23:18.462Z,6.66
2023-10-16T08:24:18.434Z,7.02
2023-10-16T08:25:18.418Z,7.28
2023-10-16T08:26:18.404Z,7.50
2023-10-16T08:27:18.394Z,7.90
2023-10-16T08:28:18.395Z,8.31
2023-10-16T08:29:18.395Z,8.79
2023-10-16T08:30:18.378Z,9.14
2023-10-16T08:31:18.377Z,9.40
2023-10-16T08:32:18.351Z,9.56
2023-10-16T08:33:18.348Z,9.80
2023-10-16T08:34:18.299Z,10.17
2023-10-16T08:35:18.294Z,10.35
2023-10-16T08:36:18.285Z,10.53
2023-10-16T08:37:18.274Z,10.72
2023-10-16T08:38:18.247Z,10.97
2023-10-16T08:39:18.229Z,11.23
2023-10-16T08:40:18.221Z,11.44
2023-10-16T08:41:18.206Z,11.48
2023-10-16T08:42:18.208Z,11.54
2023-10-16T08:43:18.180Z,11.86
2023-10-16T08:44:18.171Z,11.99
2023-10-16T08:45:18.191Z,12.18
2023-10-16T08:46:18.161Z,12.35
2023-10-16T08:47:18.138Z,12.35
2023-10-16T08:48:18.113Z,12.20
2023-10-16T08:49:18.145Z,12.18
2023-10-16T08:50:18.085Z,11.95
2023-10-16T08:51:18.123Z,11.84
2023-10-16T08:52:18.063Z,11.75
2023-10-16T08:53:18.051Z,11.47
2023-10-16T08:54:18.037Z,11.14
2023-10-16T08:55:18.029Z,10.82
2023-10-16T08:56:18.023Z,10.64
2023-10-16T08:57:17.991Z,10.38
2023-10-16T08:58:17.980Z,10.13
2023-10-16T08:59:17.985Z,10.20
2023-10-16T09:00:17.964Z,10.42
2023-10-16T09:01:18.524Z,10.87
2023-10-16T09:02:17.935Z,11.29
2023-10-16T09:03:17.986Z,11.66
2023-10-16T09:04:19.517Z,12.03
2023-10-16T09:05:17.889Z,12.55
2023-10-16T09:06:17.874Z,13.00
2023-10-16T09:07:17.859Z,13.15
2023-10-16T09:08:17.863Z,13.20
2023-10-16T09:09:17.867Z,13.39
2023-10-16T09:10:17.821Z,13.57
2023-10-16T09:11:17.832Z,13.67
2023-10-16T09:12:17.795Z,13.78
2023-10-16T09:13:20.805Z,13.60
2023-10-16T09:14:17.788Z,13.52
2023-10-16T09:15:17.754Z,13.70
2023-10-16T09:16:17.774Z,13.75
2023-10-16T09:17:17.746Z,13.92
2023-10-16T09:18:17.728Z,13.42
2023-10-16T09:19:17.698Z,13.31
2023-10-16T09:20:17.689Z,13.65
2023-10-16T09:21:17.681Z,14.20
2023-10-16T09:22:17.677Z,14.77
2023-10-16T09:23:17.660Z,15.19
2023-10-16T09:24:17.638Z,14.97
2023-10-16T09:25:30.008Z,14.94
2023-10-16T09:26:18.613Z,14.85
2023-10-16T09:27:17.614Z,14.92
2023-10-16T09:28:17.619Z,15.39
2023-10-16T09:29:17.577Z,15.57
2023-10-16T09:30:17.596Z,14.63
2023-10-16T09:31:17.581Z,14.59
2023-10-16T09:32:17.645Z,14.51
2023-10-16T09:33:17.587Z,14.60
2023-10-16T09:34:17.511Z,15.18
2023-10-16T09:35:17.502Z,15.15
2023-10-16T09:36:17.494Z,13.97
2023-10-16T09:37:17.507Z,13.18
2023-10-16T09:38:17.457Z,13.37
2023-10-16T09:39:17.439Z,13.09
2023-10-16T09:40:24.288Z,12.91
2023-10-16T09:41:17.430Z,13.01
2023-10-16T09:42:17.406Z,13.60
2023-10-16T09:43:17.388Z,14.05
2023-10-16T09:44:17.369Z,14.60
2023-10-16T09:45:17.376Z,15.42
2023-10-16T09:46:17.389Z,16.00
2023-10-16T09:47:17.337Z,15.88
2023-10-16T09:48:17.328Z,15.47
2023-10-16T09:49:17.419Z,15.72
2023-10-16T09:50:17.303Z,16.08
2023-10-16T09:51:17.298Z,16.68
2023-10-16T09:52:17.280Z,17.12
2023-10-16T09:53:17.277Z,16.66
2023-10-16T09:54:17.255Z,16.61
2023-10-16T09:55:17.254Z,16.46
2023-10-16T09:56:17.226Z,15.28
2023-10-16T09:57:19.675Z,14.92
2023-10-16T09:58:17.192Z,15.35
2023-10-16T09:59:17.174Z,15.10
2023-10-16T10:00:17.182Z,15.19
2023-10-16T10:01:17.170Z,15.31
2023-10-16T10:02:17.142Z,16.04
2023-10-16T10:03:17.223Z,16.94
2023-10-16T10:04:17.204Z,17.30
2023-10-16T10:05:17.239Z,17.31
2023-10-16T10:06:17.088Z,17.34
2023-10-16T10:07:17.082Z,17.59
2023-10-16T10:08:17.210Z,17.79
2023-10-16T10:09:17.060Z,17.63
2023-10-16T10:10:17.052Z,17.65
2023-10-16T10:11:28.287Z,17.52
2023-10-16T10:12:17.026Z,17.65
2023-10-16T10:13:17.192Z,17.60
2023-10-16T10:14:17.010Z,17.63
2023-10-16T10:15:17.044Z,17.49
2023-10-16T10:16:17.070Z,17.36
2023-10-16T10:17:16.955Z,17.48
2023-10-16T10:18:16.931Z,17.70
2023-10-16T10:19:16.929Z,17.90
2023-10-16T10:20:16.902Z,17.86
2023-10-16T10:21:17.013Z,17.46
2023-10-16T10:22:16.888Z,16.12
2023-10-16T10:23:16.866Z,16.61
2023-10-16T10:24:16.898Z,16.83
2023-10-16T10:25:20.331Z,16.21
2023-10-16T10:26:16.828Z,16.09
2023-10-16T10:27:16.817Z,16.99
2023-10-16T10:28:16.804Z,17.46
2023-10-16T10:29:16.854Z,17.65
2023-10-16T10:30:16.794Z,17.42
2023-10-16T10:31:16.890Z,17.51
2023-10-16T10:32:16.770Z,17.23
2023-10-16T10:33:16.735Z,17.29
2023-10-16T10:34:16.740Z,17.09
2023-10-16T10:35:16.748Z,17.49
2023-10-16T10:36:16.727Z,17.97
2023-10-16T10:37:16.869Z,17.98
2023-10-16T10:38:16.692Z,18.52
2023-10-16T10:39:16.695Z,18.52
2023-10-16T10:40:16.719Z,18.70
2023-10-16T10:41:16.634Z,19.29
2023-10-16T10:42:16.626Z,19.66
2023-10-16T10:43:16.645Z,20.10
2023-10-16T10:44:17.254Z,20.58
2023-10-16T10:45:16.595Z,20.84
2023-10-16T10:46:16.677Z,20.03
2023-10-16T10:47:16.561Z,19.74
2023-10-16T10:48:16.628Z,19.62
2023-10-16T10:49:16.617Z,19.95
2023-10-16T10:50:16.524Z,20.14
2023-10-16T10:51:16.508Z,20.75
2023-10-16T10:52:16.503Z,21.37
2023-10-16T10:53:16.685Z,21.51
2023-10-16T10:54:16.480Z,21.30
2023-10-16T10:55:16.512Z,21.62
2023-10-16T10:56:16.451Z,21.02
2023-10-16T10:57:16.451Z,20.48
2023-10-16T10:58:16.468Z,20.32
2023-10-16T10:59:16.417Z,20.59
2023-10-16T11:00:16.402Z,19.95
2023-10-16T11:01:16.495Z,19.82
2023-10-16T11:02:16.396Z,19.99
2023-10-16T11:03:16.448Z,20.00
2023-10-16T11:04:16.433Z,19.88
2023-10-16T11:05:17.166Z,20.11
2023-10-16T11:06:16.330Z,20.21
2023-10-16T11:07:16.397Z,20.14
2023-10-16T11:08:16.310Z,20.13
2023-10-16T11:09:16.410Z,19.69
2023-10-16T11:10:16.344Z,19.54
2023-10-16T11:11:16.269Z,19.52
2023-10-16T11:12:16.284Z,19.36
2023-10-16T11:13:16.263Z,19.45
2023-10-16T11:14:16.246Z,19.82
2023-10-16T11:15:16.312Z,20.29
2023-10-16T11:16:16.341Z,20.74
2023-10-16T11:17:16.221Z,19.22
2023-10-16T11:18:16.220Z,19.74
2023-10-16T11:19:16.185Z,19.66
2023-10-16T11:20:16.178Z,19.74
2023-10-16T11:21:16.169Z,19.91
2023-10-16T11:22:16.197Z,20.36
2023-10-16T11:23:16.127Z,20.09
2023-10-16T11:24:16.115Z,20.58
2023-10-16T11:25:16.389Z,20.62
2023-10-16T11:26:16.107Z,20.55
2023-10-16T11:27:16.080Z,20.82
2023-10-16T11:28:16.096Z,20.99
2023-10-16T11:29:16.056Z,20.50
2023-10-16T11:30:16.075Z,19.58
2023-10-16T11:31:16.925Z,19.59
2023-10-16T11:32:16.314Z,20.10
2023-10-16T11:33:16.002Z,20.72
2023-10-16T11:34:16.028Z,21.33
2023-10-16T11:35:16.066Z,22.00
2023-10-16T11:36:15.972Z,22.30
2023-10-16T11:37:15.954Z,22.23
2023-10-16T11:38:15.935Z,22.26
2023-10-16T11:39:15.929Z,22.75
2023-10-16T11:40:15.926Z,22.70
2023-10-16T11:41:16.022Z,22.63
2023-10-16T11:42:15.890Z,22.84
2023-10-16T11:43:15.914Z,22.88
2023-10-16T11:44:15.944Z,23.05
2023-10-16T11:45:15.859Z,22.66
2023-10-16T11:46:15.898Z,21.54
2023-10-16T11:47:15.822Z,20.99
2023-10-16T11:48:15.809Z,20.31
2023-10-16T11:49:15.880Z,20.14
2023-10-16T11:50:15.798Z,18.41
2023-10-16T11:51:15.775Z,16.56
2023-10-16T11:52:15.803Z,16.56
2023-10-16T11:53:15.745Z,16.79
2023-10-16T11:54:15.762Z,16.61
2023-10-16T11:55:15.822Z,16.08
2023-10-16T11:56:15.708Z,16.10
2023-10-16T11:57:15.818Z,17.34
2023-10-16T11:58:15.736Z,18.74
2023-10-16T11:59:15.688Z,20.04
2023-10-16T12:00:15.656Z,21.02
2023-10-16T12:01:33.170Z,21.46
2023-10-16T12:02:16.630Z,21.61
2023-10-16T12:03:15.771Z,21.03
2023-10-16T12:04:15.663Z,20.26
2023-10-16T12:05:15.600Z,19.11
2023-10-16T12:06:15.582Z,19.34
2023-10-16T12:07:16.160Z,19.67
2023-10-16T12:08:15.579Z,19.44
2023-10-16T12:09:15.560Z,17.64
2023-10-16T12:10:15.591Z,16.74
2023-10-16T12:11:15.593Z,17.12
2023-10-16T12:12:15.507Z,17.27
2023-10-16T12:13:15.684Z,17.22
2023-10-16T12:14:15.480Z,18.40
2023-10-16T12:15:15.500Z,18.47
2023-10-16T12:16:28.751Z,19.27
2023-10-16T12:17:15.445Z,20.36
2023-10-16T12:18:15.474Z,21.33
2023-10-16T12:19:15.480Z,21.89
2023-10-16T12:20:15.405Z,22.29
2023-10-16T12:21:15.386Z,23.00
2023-10-16T12:22:15.417Z,23.73
2023-10-16T12:23:17.743Z,24.36
2023-10-16T12:24:15.346Z,24.96
2023-10-16T12:25:15.424Z,24.43
2023-10-16T12:26:15.323Z,20.41
2023-10-16T12:27:15.325Z,20.04
2023-10-16T12:28:15.346Z,20.32
2023-10-16T12:29:15.406Z,20.39
2023-10-16T12:30:15.568Z,21.42
2023-10-16T12:31:15.274Z,20.90
2023-10-16T12:32:15.259Z,20.72
2023-10-16T12:33:15.232Z,21.61
2023-10-16T12:34:15.269Z,21.57
2023-10-16T12:35:15.212Z,21.80
2023-10-16T12:36:15.202Z,21.98
2023-10-16T12:37:15.244Z,21.85
2023-10-16T12:38:15.174Z,20.51
2023-10-16T12:39:15.157Z,20.25
2023-10-16T12:40:15.179Z,21.06
2023-10-16T12:41:15.145Z,21.80
2023-10-16T12:42:15.311Z,22.51
2023-10-16T12:43:15.216Z,23.02
2023-10-16T12:44:15.091Z,22.72
2023-10-16T12:45:15.231Z,22.75
2023-10-16T12:46:15.109Z,22.94
2023-10-16T12:48:15.040Z,23.37
2023-10-16T12:49:15.085Z,23.93
2023-10-16T12:50:15.017Z,21.36
2023-10-16T12:51:15.017Z,21.57
2023-10-16T12:52:15.107Z,20.10
2023-10-16T12:53:14.983Z,20.28
2023-10-16T12:54:14.982Z,21.20
2023-10-16T12:55:17.905Z,20.34
2023-10-16T12:56:14.986Z,21.07
2023-10-16T12:57:14.932Z,21.43
2023-10-16T12:58:14.937Z,21.85
2023-10-16T12:59:14.906Z,22.13
2023-10-16T13:00:14.912Z,22.26
2023-10-16T13:01:15.020Z,22.47
2023-10-16T13:02:14.867Z,22.78
2023-10-16T13:03:15.019Z,22.93
2023-10-16T13:04:15.191Z,23.09
2023-10-16T13:05:14.836Z,22.88
2023-10-16T13:06:14.829Z,22.98
2023-10-16T13:07:26.996Z,22.99
2023-10-16T13:08:15.783Z,23.10
2023-10-16T13:09:14.778Z,23.31
2023-10-16T13:10:14.837Z,21.64